Eira — OJJP — position and weather

sailwx.info

Track history (hours):
 
Tides and Currents Weather Stations Pressure Air Temp Water Temp Dewpoint Dewpoint Depression Visibility Wind Speed Wind Dir Waves Ship Positions

Eira

Last reported at 2015-Jul-06 07:33 UTC. Time now 2015-Jul-06 13:32 UTC.
Position N 57°49' E 010°32'.

Length 157 m; draft 6 m.

Type: Cargo ship. MMSI: 230935000.

Date/timePositionNaut miles runAvg speedWind from/ knotsBaromVisibWave heightAir tempDewpointWater temp
2015-Jul-06 07:33N 57°49' E 010°32'9 8.5
2015-Jul-06 06:33N 57°47' E 010°48'10 9.7
2015-Jul-06 05:33N 57°41' E 011°01'1110.6
2015-Jul-06 04:33N 57°34' E 011°16'1111.0
2015-Jul-06 03:32N 57°25' E 011°28'1212.2
2015-Jul-06 02:33N 57°13' E 011°36'1312.2
2015-Jul-06 01:29N 57°01' E 011°44'3311.2
2015-Jul-05 22:33N 56°30' E 012°02'1110.7
2015-Jul-05 21:33N 56°20' E 012°06'1010.1
2015-Jul-05 20:33N 56°13' E 012°20'10 9.6
2015-Jul-05 19:32N 56°07' E 012°33'9 9.1
2015-Jul-05 18:33N 55°59' E 012°42'8 8.0
2015-Jul-05 17:34N 55°52' E 012°48'1 1.4
2015-Jul-05 16:33N 55°51' E 012°50'0 0.0
2015-Jul-05 15:33N 55°51' E 012°50'0 0.0
2015-Jul-05 14:33N 55°51' E 012°50'0 0.0
2015-Jul-05 13:33N 55°51' E 012°50'0 0.0
2015-Jul-05 12:33N 55°51' E 012°50'0 0.0
2015-Jul-05 11:33N 55°51' E 012°50'0 0.0
2015-Jul-05 10:29N 55°51' E 012°50'0 0.0
2015-Jul-05 09:29N 55°51' E 012°50'0 0.0
2015-Jul-05 08:32N 55°51' E 012°50'0 0.0
2015-Jul-05 07:32N 55°51' E 012°50'0 0.0
2015-Jul-05 06:29N 55°51' E 012°50'0 0.0
2015-Jul-05 05:32N 55°51' E 012°50'0 0.0
2015-Jul-05 04:32N 55°51' E 012°50'0 0.0
2015-Jul-05 03:32N 55°51' E 012°50'0 0.0
2015-Jul-05 02:32N 55°51' E 012°50'0 0.0
2015-Jul-05 01:32N 55°51' E 012°50'0 0.0
2015-Jul-05 00:32N 55°51' E 012°50'0 0.0
2015-Jul-04 23:32N 55°51' E 012°50'0 0.0
2015-Jul-04 22:23N 55°51' E 012°50'0 0.0
2015-Jul-04 21:32N 55°51' E 012°50'0 0.0
2015-Jul-04 20:32N 55°51' E 012°50'0 0.0
2015-Jul-04 19:32N 55°51' E 012°50'0 0.0
2015-Jul-04 18:32N 55°51' E 012°50'0 0.0
2015-Jul-04 17:32N 55°51' E 012°50'0 0.0
2015-Jul-04 16:32N 55°51' E 012°50'0 0.0
2015-Jul-04 15:32N 55°51' E 012°50'0 0.0
2015-Jul-04 14:32N 55°51' E 012°50'0 0.0
2015-Jul-04 13:32N 55°51' E 012°50'0 0.0
2015-Jul-04 12:32N 55°51' E 012°50'0 0.0
2015-Jul-04 11:32N 55°51' E 012°50'0 0.0
2015-Jul-04 10:32N 55°51' E 012°50'0 0.0
2015-Jul-04 09:32N 55°51' E 012°50'0 0.0
2015-Jul-04 08:29N 55°51' E 012°50'0 0.0
2015-Jul-04 07:32N 55°51' E 012°50'0 0.0
2015-Jul-04 06:32N 55°51' E 012°50'0 0.0
2015-Jul-04 05:32N 55°51' E 012°50'0 0.0
2015-Jul-04 04:32N 55°51' E 012°50'0 0.0
2015-Jul-04 03:29N 55°51' E 012°50'0 0.0
2015-Jul-04 02:32N 55°51' E 012°50'0 0.0
2015-Jul-04 01:32N 55°51' E 012°50'0 0.0
2015-Jul-04 00:32N 55°51' E 012°50'0 0.0
2015-Jul-03 23:32N 55°51' E 012°50'0 0.0
2015-Jul-03 22:32N 55°51' E 012°50'0 0.0
2015-Jul-03 21:32N 55°51' E 012°50'0 0.0
2015-Jul-03 20:32N 55°51' E 012°50'0 0.0
2015-Jul-03 19:32N 55°51' E 012°50'0 0.0
2015-Jul-03 18:32N 55°51' E 012°50'0 0.0
2015-Jul-03 17:32N 55°51' E 012°50'0 0.0
2015-Jul-03 16:29N 55°51' E 012°50'0 0.0
2015-Jul-03 15:32N 55°51' E 012°50'0 0.0
2015-Jul-03 14:32N 55°51' E 012°50'0 0.0
2015-Jul-03 13:32N 55°51' E 012°50'0 0.0
2015-Jul-03 12:32N 55°51' E 012°50'0 0.0
2015-Jul-03 11:26N 55°51' E 012°50'0 0.0
2015-Jul-03 10:32N 55°51' E 012°50'0 0.0
2015-Jul-03 09:32N 55°51' E 012°50'0 0.0
2015-Jul-03 08:23N 55°51' E 012°50'0 0.0
2015-Jul-03 07:29N 55°51' E 012°50'0 0.0
2015-Jul-03 06:32N 55°51' E 012°50'0 0.0
2015-Jul-03 05:32N 55°51' E 012°50'0 0.0
2015-Jul-03 04:32N 55°51' E 012°50'0 0.0
2015-Jul-03 03:32N 55°51' E 012°50'0 0.0
2015-Jul-03 02:29N 55°51' E 012°50'0 0.0
2015-Jul-03 01:29N 55°51' E 012°50'0 0.0
2015-Jul-03 00:32N 55°51' E 012°50'0 0.0
2015-Jul-02 23:32N 55°51' E 012°50'0 0.0
2015-Jul-02 22:32N 55°51' E 012°50'0 0.0
2015-Jul-02 21:32N 55°51' E 012°50'0 0.0
2015-Jul-02 20:32N 55°51' E 012°50'0 0.0
2015-Jul-02 19:32N 55°51' E 012°50'0 0.0
2015-Jul-02 18:32N 55°51' E 012°50'0 0.0
2015-Jul-02 17:29N 55°51' E 012°50'0 0.0
2015-Jul-02 16:29N 55°51' E 012°50'0 0.0
2015-Jul-02 15:32N 55°51' E 012°50'0 0.0
2015-Jul-02 14:29N 55°51' E 012°50'0 0.0
2015-Jul-02 13:32N 55°51' E 012°50'0 0.0
2015-Jul-02 12:32N 55°51' E 012°50'0 0.0
2015-Jul-02 11:32N 55°51' E 012°50'0 0.0
2015-Jul-02 10:32N 55°51' E 012°50'0 0.0
2015-Jul-02 09:32N 55°51' E 012°50'0 0.0
2015-Jul-02 08:32N 55°51' E 012°50'0 0.0
2015-Jul-02 07:26N 55°51' E 012°50'0 0.0
2015-Jul-02 06:32N 55°51' E 012°50'0 0.0
2015-Jul-02 05:32N 55°51' E 012°50'0 0.0
2015-Jul-02 04:32N 55°51' E 012°50'0 0.0
2015-Jul-02 03:32N 55°51' E 012°50'0 0.0
2015-Jul-02 02:32N 55°51' E 012°50'0 0.0
2015-Jul-02 01:32N 55°51' E 012°50'0 0.0
2015-Jul-02 00:32N 55°51' E 012°50'0 0.0
2015-Jul-01 23:32N 55°51' E 012°50'0 0.0
2015-Jul-01 22:31N 55°51' E 012°50'0 0.0
2015-Jul-01 21:31N 55°51' E 012°50'0 0.0
2015-Jul-01 20:32N 55°51' E 012°50'0 0.0
2015-Jul-01 19:31N 55°51' E 012°50'0 0.0
2015-Jul-01 18:31N 55°51' E 012°50'0 0.1
2015-Jul-01 17:31N 55°51' E 012°50'0 0.2
2015-Jul-01 16:32N 55°51' E 012°50'0 0.0
2015-Jul-01 15:31N 55°51' E 012°50'0 0.0
2015-Jul-01 14:31N 55°51' E 012°50'0 0.0
2015-Jul-01 13:31N 55°51' E 012°50'0 0.0
2015-Jul-01 12:32N 55°51' E 012°50'0 0.0
2015-Jul-01 11:31N 55°51' E 012°50'0 0.0
2015-Jul-01 10:31N 55°51' E 012°50'0 0.0
2015-Jul-01 09:32N 55°51' E 012°50'0 0.0
2015-Jul-01 08:31N 55°51' E 012°50'0 0.0
2015-Jul-01 07:31N 55°51' E 012°50'0 0.0
2015-Jul-01 06:29N 55°51' E 012°50'0 0.0
2015-Jul-01 05:31N 55°51' E 012°50'0 0.0
2015-Jul-01 04:32N 55°51' E 012°50'0 0.0
2015-Jul-01 03:31N 55°51' E 012°50'0 0.0
2015-Jul-01 02:31N 55°51' E 012°50'0 0.0
2015-Jul-01 01:32N 55°51' E 012°50'0 0.0
2015-Jul-01 00:31N 55°51' E 012°50'0 0.0
2015-Jun-30 23:32N 55°51' E 012°50'0 0.0
2015-Jun-30 22:32N 55°51' E 012°50'0 0.0
2015-Jun-30 21:29N 55°51' E 012°50'0 0.0
2015-Jun-30 20:32N 55°51' E 012°50'0 0.0
2015-Jun-30 19:32N 55°51' E 012°50'0 0.0
2015-Jun-30 18:32N 55°51' E 012°50'0 0.0
2015-Jun-30 17:32N 55°51' E 012°50'0 0.0
2015-Jun-30 16:32N 55°51' E 012°50'0 0.0
2015-Jun-30 15:32N 55°51' E 012°50'0 0.0
2015-Jun-30 14:32N 55°51' E 012°50'0 0.0
2015-Jun-30 13:32N 55°51' E 012°50'0 0.0
2015-Jun-30 12:32N 55°51' E 012°50'0 0.0
2015-Jun-30 11:32N 55°51' E 012°50'0 0.0
2015-Jun-30 10:32N 55°51' E 012°50'0 0.0
2015-Jun-30 09:32N 55°51' E 012°50'0 0.0
2015-Jun-30 08:32N 55°51' E 012°50'0 0.0
2015-Jun-30 07:32N 55°51' E 012°50'0 0.0
2015-Jun-30 06:26N 55°51' E 012°50'0 0.0
2015-Jun-30 05:32N 55°51' E 012°50'0 0.0
2015-Jun-30 04:32N 55°51' E 012°50'0 0.0
2015-Jun-30 03:32N 55°51' E 012°50'0 0.0
2015-Jun-30 02:32N 55°51' E 012°50'0 0.0
2015-Jun-30 01:32N 55°51' E 012°50'0 0.0
2015-Jun-30 00:32N 55°51' E 012°50'0 0.0
2015-Jun-29 23:32N 55°51' E 012°50'0 0.0
2015-Jun-29 22:32N 55°51' E 012°50'0 0.0
2015-Jun-29 21:32N 55°51' E 012°50'0 0.0
2015-Jun-29 20:32N 55°51' E 012°50'0 0.0
2015-Jun-29 19:32N 55°51' E 012°50'0 0.0
2015-Jun-29 18:32N 55°51' E 012°50'0 0.0
2015-Jun-29 17:32N 55°51' E 012°50'0 0.0
2015-Jun-29 16:32N 55°51' E 012°50'0 0.0
2015-Jun-29 15:32N 55°51' E 012°50'0 0.0
2015-Jun-29 14:32N 55°51' E 012°50'0 0.0
2015-Jun-29 13:32N 55°51' E 012°50'0 0.0
2015-Jun-29 12:32N 55°51' E 012°50'0 0.0
2015-Jun-29 11:32N 55°51' E 012°50'0 0.0
2015-Jun-29 10:32N 55°51' E 012°50'0 0.0
2015-Jun-29 09:32N 55°51' E 012°50'0 0.0
2015-Jun-29 08:32N 55°51' E 012°50'0 0.0
2015-Jun-29 07:32N 55°51' E 012°50'0 0.0
2015-Jun-29 06:32N 55°51' E 012°50'0 0.0
2015-Jun-29 05:32N 55°51' E 012°50'0 0.0
2015-Jun-29 04:32N 55°51' E 012°50'0 0.0
2015-Jun-29 03:32N 55°51' E 012°50'0 0.0
2015-Jun-29 02:32N 55°51' E 012°50'0 0.0
2015-Jun-29 01:32N 55°51' E 012°50'0 0.0
2015-Jun-29 00:32N 55°51' E 012°50'0 0.0
2015-Jun-28 23:32N 55°51' E 012°50'0 0.0
2015-Jun-28 22:32N 55°51' E 012°50'0 0.0
2015-Jun-28 21:32N 55°51' E 012°50'0 0.0
2015-Jun-28 20:32N 55°51' E 012°50'0 0.0
2015-Jun-28 19:32N 55°51' E 012°50'0 0.0
2015-Jun-28 18:32N 55°51' E 012°50'0 0.0
2015-Jun-28 17:32N 55°51' E 012°50'0 0.0
2015-Jun-28 16:32N 55°51' E 012°50'0 0.0
2015-Jun-28 15:32N 55°51' E 012°50'0 0.0
2015-Jun-28 14:32N 55°51' E 012°50'0 0.0
2015-Jun-28 13:32N 55°51' E 012°50'0 0.0
2015-Jun-28 12:32N 55°51' E 012°50'0 0.0
2015-Jun-28 11:29N 55°51' E 012°50'0 0.0
2015-Jun-28 10:32N 55°51' E 012°50'0 0.0
2015-Jun-28 09:32N 55°51' E 012°50'0 0.0
2015-Jun-28 08:32N 55°51' E 012°50'0 0.0
2015-Jun-28 07:32N 55°51' E 012°50'0 0.0
2015-Jun-28 06:32N 55°51' E 012°50'0 0.0
2015-Jun-28 05:32N 55°51' E 012°50'0 0.0
2015-Jun-28 04:32N 55°51' E 012°50'0 0.0
2015-Jun-28 03:32N 55°51' E 012°50'0 0.0
2015-Jun-28 02:32N 55°51' E 012°50'0 0.0
2015-Jun-28 01:29N 55°51' E 012°50'0 0.0
2015-Jun-28 00:32N 55°51' E 012°50'0 0.0
2015-Jun-27 23:32N 55°51' E 012°50'0 0.0
2015-Jun-27 22:32N 55°51' E 012°50'0 0.0
2015-Jun-27 21:32N 55°51' E 012°50'0 0.0
2015-Jun-27 20:32N 55°51' E 012°50'0 0.0
2015-Jun-27 19:32N 55°51' E 012°50'0 0.0
2015-Jun-27 18:32N 55°51' E 012°50'0 0.0
2015-Jun-27 17:32N 55°51' E 012°50'0 0.0
2015-Jun-27 16:32N 55°51' E 012°50'0 0.0
2015-Jun-27 15:32N 55°51' E 012°50'0 0.0
2015-Jun-27 14:32N 55°51' E 012°50'0 0.0
2015-Jun-27 13:32N 55°51' E 012°50'0 0.0
2015-Jun-27 12:32N 55°51' E 012°50'0 0.0
2015-Jun-27 11:32N 55°51' E 012°50'0 0.0
2015-Jun-27 10:32N 55°51' E 012°50'0 0.0
2015-Jun-27 09:32N 55°51' E 012°50'0 0.0
2015-Jun-27 08:29N 55°51' E 012°50'0 0.0
2015-Jun-27 07:32N 55°51' E 012°50'0 0.0
2015-Jun-27 06:32N 55°51' E 012°50'0 0.0
2015-Jun-27 05:32N 55°51' E 012°50'0 0.0
2015-Jun-27 04:32N 55°51' E 012°50'0 0.0
2015-Jun-27 03:32N 55°51' E 012°50'0 0.0
2015-Jun-27 02:32N 55°51' E 012°50'0 0.0
2015-Jun-27 01:32N 55°51' E 012°50'0 0.0
2015-Jun-27 00:32N 55°51' E 012°50'0 0.0
2015-Jun-26 23:32N 55°51' E 012°50'0 0.0
2015-Jun-26 22:32N 55°51' E 012°50'0 0.0
2015-Jun-26 21:32N 55°51' E 012°50'0 0.0
2015-Jun-26 20:32N 55°51' E 012°50'0 0.0
2015-Jun-26 19:32N 55°51' E 012°50'0 0.0
2015-Jun-26 18:32N 55°51' E 012°50'0 0.0
2015-Jun-26 17:29N 55°51' E 012°50'0 0.0
2015-Jun-26 16:32N 55°51' E 012°50'0 0.0
2015-Jun-26 15:32N 55°51' E 012°50'0 0.0
2015-Jun-26 14:32N 55°51' E 012°50'0 0.0
2015-Jun-26 13:32N 55°51' E 012°50'0 0.0
2015-Jun-26 12:29N 55°51' E 012°50'0 0.0
2015-Jun-26 11:29N 55°51' E 012°50'0 0.0
2015-Jun-26 10:32N 55°51' E 012°50'0 0.0
2015-Jun-26 09:32N 55°51' E 012°50'0 0.0
2015-Jun-26 08:32N 55°51' E 012°50'  
Track history (hours):
 
Tides and Currents Weather Stations Pressure Air Temp Water Temp Dewpoint Dewpoint Depression Visibility Wind Speed Wind Dir Waves Ship Positions

Eira

Last reported at 2015-Jul-06 07:33 UTC. Time now 2015-Jul-06 13:32 UTC.
Position N 57°49' E 010°32'.

Length 157 m; draft 6 m.

Type: Cargo ship. MMSI: 230935000.

Date/timePositionNaut miles runAvg speedWind from/ knotsBaromVisibWave heightAir tempDewpointWater temp
2015-Jul-06 07:33N 57°49' E 010°32'9 8.5
2015-Jul-06 06:33N 57°47' E 010°48'10 9.7
2015-Jul-06 05:33N 57°41' E 011°01'1110.6
2015-Jul-06 04:33N 57°34' E 011°16'1111.0
2015-Jul-06 03:32N 57°25' E 011°28'1212.2
2015-Jul-06 02:33N 57°13' E 011°36'1312.2
2015-Jul-06 01:29N 57°01' E 011°44'3311.2
2015-Jul-05 22:33N 56°30' E 012°02'1110.7
2015-Jul-05 21:33N 56°20' E 012°06'1010.1
2015-Jul-05 20:33N 56°13' E 012°20'10 9.6
2015-Jul-05 19:32N 56°07' E 012°33'9 9.1
2015-Jul-05 18:33N 55°59' E 012°42'8 8.0
2015-Jul-05 17:34N 55°52' E 012°48'1 1.4
2015-Jul-05 16:33N 55°51' E 012°50'0 0.0
2015-Jul-05 15:33N 55°51' E 012°50'0 0.0
2015-Jul-05 14:33N 55°51' E 012°50'0 0.0
2015-Jul-05 13:33N 55°51' E 012°50'0 0.0
2015-Jul-05 12:33N 55°51' E 012°50'0 0.0
2015-Jul-05 11:33N 55°51' E 012°50'0 0.0
2015-Jul-05 10:29N 55°51' E 012°50'0 0.0
2015-Jul-05 09:29N 55°51' E 012°50'0 0.0
2015-Jul-05 08:32N 55°51' E 012°50'0 0.0
2015-Jul-05 07:32N 55°51' E 012°50'0 0.0
2015-Jul-05 06:29N 55°51' E 012°50'0 0.0
2015-Jul-05 05:32N 55°51' E 012°50'0 0.0
2015-Jul-05 04:32N 55°51' E 012°50'0 0.0
2015-Jul-05 03:32N 55°51' E 012°50'0 0.0
2015-Jul-05 02:32N 55°51' E 012°50'0 0.0
2015-Jul-05 01:32N 55°51' E 012°50'0 0.0
2015-Jul-05 00:32N 55°51' E 012°50'0 0.0
2015-Jul-04 23:32N 55°51' E 012°50'0 0.0
2015-Jul-04 22:23N 55°51' E 012°50'0 0.0
2015-Jul-04 21:32N 55°51' E 012°50'0 0.0
2015-Jul-04 20:32N 55°51' E 012°50'0 0.0
2015-Jul-04 19:32N 55°51' E 012°50'0 0.0
2015-Jul-04 18:32N 55°51' E 012°50'0 0.0
2015-Jul-04 17:32N 55°51' E 012°50'0 0.0
2015-Jul-04 16:32N 55°51' E 012°50'0 0.0
2015-Jul-04 15:32N 55°51' E 012°50'0 0.0
2015-Jul-04 14:32N 55°51' E 012°50'0 0.0
2015-Jul-04 13:32N 55°51' E 012°50'0 0.0
2015-Jul-04 12:32N 55°51' E 012°50'0 0.0
2015-Jul-04 11:32N 55°51' E 012°50'0 0.0
2015-Jul-04 10:32N 55°51' E 012°50'0 0.0
2015-Jul-04 09:32N 55°51' E 012°50'0 0.0
2015-Jul-04 08:29N 55°51' E 012°50'0 0.0
2015-Jul-04 07:32N 55°51' E 012°50'0 0.0
2015-Jul-04 06:32N 55°51' E 012°50'0 0.0
2015-Jul-04 05:32N 55°51' E 012°50'0 0.0
2015-Jul-04 04:32N 55°51' E 012°50'0 0.0
2015-Jul-04 03:29N 55°51' E 012°50'0 0.0
2015-Jul-04 02:32N 55°51' E 012°50'0 0.0
2015-Jul-04 01:32N 55°51' E 012°50'0 0.0
2015-Jul-04 00:32N 55°51' E 012°50'0 0.0
2015-Jul-03 23:32N 55°51' E 012°50'0 0.0
2015-Jul-03 22:32N 55°51' E 012°50'0 0.0
2015-Jul-03 21:32N 55°51' E 012°50'0 0.0
2015-Jul-03 20:32N 55°51' E 012°50'0 0.0
2015-Jul-03 19:32N 55°51' E 012°50'0 0.0
2015-Jul-03 18:32N 55°51' E 012°50'0 0.0
2015-Jul-03 17:32N 55°51' E 012°50'0 0.0
2015-Jul-03 16:29N 55°51' E 012°50'0 0.0
2015-Jul-03 15:32N 55°51' E 012°50'0 0.0
2015-Jul-03 14:32N 55°51' E 012°50'0 0.0
2015-Jul-03 13:32N 55°51' E 012°50'0 0.0
2015-Jul-03 12:32N 55°51' E 012°50'0 0.0
2015-Jul-03 11:26N 55°51' E 012°50'0 0.0
2015-Jul-03 10:32N 55°51' E 012°50'0 0.0
2015-Jul-03 09:32N 55°51' E 012°50'0 0.0
2015-Jul-03 08:23N 55°51' E 012°50'0 0.0
2015-Jul-03 07:29N 55°51' E 012°50'0 0.0
2015-Jul-03 06:32N 55°51' E 012°50'0 0.0
2015-Jul-03 05:32N 55°51' E 012°50'0 0.0
2015-Jul-03 04:32N 55°51' E 012°50'0 0.0
2015-Jul-03 03:32N 55°51' E 012°50'0 0.0
2015-Jul-03 02:29N 55°51' E 012°50'0 0.0
2015-Jul-03 01:29N 55°51' E 012°50'0 0.0
2015-Jul-03 00:32N 55°51' E 012°50'0 0.0
2015-Jul-02 23:32N 55°51' E 012°50'0 0.0
2015-Jul-02 22:32N 55°51' E 012°50'0 0.0
2015-Jul-02 21:32N 55°51' E 012°50'0 0.0
2015-Jul-02 20:32N 55°51' E 012°50'0 0.0
2015-Jul-02 19:32N 55°51' E 012°50'0 0.0
2015-Jul-02 18:32N 55°51' E 012°50'0 0.0
2015-Jul-02 17:29N 55°51' E 012°50'0 0.0
2015-Jul-02 16:29N 55°51' E 012°50'0 0.0
2015-Jul-02 15:32N 55°51' E 012°50'0 0.0
2015-Jul-02 14:29N 55°51' E 012°50'0 0.0
2015-Jul-02 13:32N 55°51' E 012°50'0 0.0
2015-Jul-02 12:32N 55°51' E 012°50'0 0.0
2015-Jul-02 11:32N 55°51' E 012°50'0 0.0
2015-Jul-02 10:32N 55°51' E 012°50'0 0.0
2015-Jul-02 09:32N 55°51' E 012°50'0 0.0
2015-Jul-02 08:32N 55°51' E 012°50'0 0.0
2015-Jul-02 07:26N 55°51' E 012°50'0 0.0
2015-Jul-02 06:32N 55°51' E 012°50'0 0.0
2015-Jul-02 05:32N 55°51' E 012°50'0 0.0
2015-Jul-02 04:32N 55°51' E 012°50'0 0.0
2015-Jul-02 03:32N 55°51' E 012°50'0 0.0
2015-Jul-02 02:32N 55°51' E 012°50'0 0.0
2015-Jul-02 01:32N 55°51' E 012°50'0 0.0
2015-Jul-02 00:32N 55°51' E 012°50'0 0.0
2015-Jul-01 23:32N 55°51' E 012°50'0 0.0
2015-Jul-01 22:31N 55°51' E 012°50'0 0.0
2015-Jul-01 21:31N 55°51' E 012°50'0 0.0
2015-Jul-01 20:32N 55°51' E 012°50'0 0.0
2015-Jul-01 19:31N 55°51' E 012°50'0 0.0
2015-Jul-01 18:31N 55°51' E 012°50'0 0.1
2015-Jul-01 17:31N 55°51' E 012°50'0 0.2
2015-Jul-01 16:32N 55°51' E 012°50'0 0.0
2015-Jul-01 15:31N 55°51' E 012°50'0 0.0
2015-Jul-01 14:31N 55°51' E 012°50'0 0.0
2015-Jul-01 13:31N 55°51' E 012°50'0 0.0
2015-Jul-01 12:32N 55°51' E 012°50'0 0.0
2015-Jul-01 11:31N 55°51' E 012°50'0 0.0
2015-Jul-01 10:31N 55°51' E 012°50'0 0.0
2015-Jul-01 09:32N 55°51' E 012°50'0 0.0
2015-Jul-01 08:31N 55°51' E 012°50'0 0.0
2015-Jul-01 07:31N 55°51' E 012°50'0 0.0
2015-Jul-01 06:29N 55°51' E 012°50'0 0.0
2015-Jul-01 05:31N 55°51' E 012°50'0 0.0
2015-Jul-01 04:32N 55°51' E 012°50'0 0.0
2015-Jul-01 03:31N 55°51' E 012°50'0 0.0
2015-Jul-01 02:31N 55°51' E 012°50'0 0.0
2015-Jul-01 01:32N 55°51' E 012°50'0 0.0
2015-Jul-01 00:31N 55°51' E 012°50'0 0.0
2015-Jun-30 23:32N 55°51' E 012°50'0 0.0
2015-Jun-30 22:32N 55°51' E 012°50'0 0.0
2015-Jun-30 21:29N 55°51' E 012°50'0 0.0
2015-Jun-30 20:32N 55°51' E 012°50'0 0.0
2015-Jun-30 19:32N 55°51' E 012°50'0 0.0
2015-Jun-30 18:32N 55°51' E 012°50'0 0.0
2015-Jun-30 17:32N 55°51' E 012°50'0 0.0
2015-Jun-30 16:32N 55°51' E 012°50'0 0.0
2015-Jun-30 15:32N 55°51' E 012°50'0 0.0
2015-Jun-30 14:32N 55°51' E 012°50'0 0.0
2015-Jun-30 13:32N 55°51' E 012°50'0 0.0
2015-Jun-30 12:32N 55°51' E 012°50'0 0.0
2015-Jun-30 11:32N 55°51' E 012°50'0 0.0
2015-Jun-30 10:32N 55°51' E 012°50'0 0.0
2015-Jun-30 09:32N 55°51' E 012°50'0 0.0
2015-Jun-30 08:32N 55°51' E 012°50'0 0.0
2015-Jun-30 07:32N 55°51' E 012°50'0 0.0
2015-Jun-30 06:26N 55°51' E 012°50'0 0.0
2015-Jun-30 05:32N 55°51' E 012°50'0 0.0
2015-Jun-30 04:32N 55°51' E 012°50'0 0.0
2015-Jun-30 03:32N 55°51' E 012°50'0 0.0
2015-Jun-30 02:32N 55°51' E 012°50'0 0.0
2015-Jun-30 01:32N 55°51' E 012°50'0 0.0
2015-Jun-30 00:32N 55°51' E 012°50'0 0.0
2015-Jun-29 23:32N 55°51' E 012°50'0 0.0
2015-Jun-29 22:32N 55°51' E 012°50'0 0.0
2015-Jun-29 21:32N 55°51' E 012°50'0 0.0
2015-Jun-29 20:32N 55°51' E 012°50'0 0.0
2015-Jun-29 19:32N 55°51' E 012°50'0 0.0
2015-Jun-29 18:32N 55°51' E 012°50'0 0.0
2015-Jun-29 17:32N 55°51' E 012°50'0 0.0
2015-Jun-29 16:32N 55°51' E 012°50'0 0.0
2015-Jun-29 15:32N 55°51' E 012°50'0 0.0
2015-Jun-29 14:32N 55°51' E 012°50'0 0.0
2015-Jun-29 13:32N 55°51' E 012°50'0 0.0
2015-Jun-29 12:32N 55°51' E 012°50'0 0.0
2015-Jun-29 11:32N 55°51' E 012°50'0 0.0
2015-Jun-29 10:32N 55°51' E 012°50'0 0.0
2015-Jun-29 09:32N 55°51' E 012°50'0 0.0
2015-Jun-29 08:32N 55°51' E 012°50'0 0.0
2015-Jun-29 07:32N 55°51' E 012°50'0 0.0
2015-Jun-29 06:32N 55°51' E 012°50'0 0.0
2015-Jun-29 05:32N 55°51' E 012°50'0 0.0
2015-Jun-29 04:32N 55°51' E 012°50'0 0.0
2015-Jun-29 03:32N 55°51' E 012°50'0 0.0
2015-Jun-29 02:32N 55°51' E 012°50'0 0.0
2015-Jun-29 01:32N 55°51' E 012°50'0 0.0
2015-Jun-29 00:32N 55°51' E 012°50'0 0.0
2015-Jun-28 23:32N 55°51' E 012°50'0 0.0
2015-Jun-28 22:32N 55°51' E 012°50'0 0.0
2015-Jun-28 21:32N 55°51' E 012°50'0 0.0
2015-Jun-28 20:32N 55°51' E 012°50'0 0.0
2015-Jun-28 19:32N 55°51' E 012°50'0 0.0
2015-Jun-28 18:32N 55°51' E 012°50'0 0.0
2015-Jun-28 17:32N 55°51' E 012°50'0 0.0
2015-Jun-28 16:32N 55°51' E 012°50'0 0.0
2015-Jun-28 15:32N 55°51' E 012°50'0 0.0
2015-Jun-28 14:32N 55°51' E 012°50'0 0.0
2015-Jun-28 13:32N 55°51' E 012°50'0 0.0
2015-Jun-28 12:32N 55°51' E 012°50'0 0.0
2015-Jun-28 11:29N 55°51' E 012°50'0 0.0
2015-Jun-28 10:32N 55°51' E 012°50'0 0.0
2015-Jun-28 09:32N 55°51' E 012°50'0 0.0
2015-Jun-28 08:32N 55°51' E 012°50'0 0.0
2015-Jun-28 07:32N 55°51' E 012°50'0 0.0
2015-Jun-28 06:32N 55°51' E 012°50'0 0.0
2015-Jun-28 05:32N 55°51' E 012°50'0 0.0
2015-Jun-28 04:32N 55°51' E 012°50'0 0.0
2015-Jun-28 03:32N 55°51' E 012°50'0 0.0
2015-Jun-28 02:32N 55°51' E 012°50'0 0.0
2015-Jun-28 01:29N 55°51' E 012°50'0 0.0
2015-Jun-28 00:32N 55°51' E 012°50'0 0.0
2015-Jun-27 23:32N 55°51' E 012°50'0 0.0
2015-Jun-27 22:32N 55°51' E 012°50'0 0.0
2015-Jun-27 21:32N 55°51' E 012°50'0 0.0
2015-Jun-27 20:32N 55°51' E 012°50'0 0.0
2015-Jun-27 19:32N 55°51' E 012°50'0 0.0
2015-Jun-27 18:32N 55°51' E 012°50'0 0.0
2015-Jun-27 17:32N 55°51' E 012°50'0 0.0
2015-Jun-27 16:32N 55°51' E 012°50'0 0.0
2015-Jun-27 15:32N 55°51' E 012°50'0 0.0
2015-Jun-27 14:32N 55°51' E 012°50'0 0.0
2015-Jun-27 13:32N 55°51' E 012°50'0 0.0
2015-Jun-27 12:32N 55°51' E 012°50'0 0.0
2015-Jun-27 11:32N 55°51' E 012°50'0 0.0
2015-Jun-27 10:32N 55°51' E 012°50'0 0.0
2015-Jun-27 09:32N 55°51' E 012°50'0 0.0
2015-Jun-27 08:29N 55°51' E 012°50'0 0.0
2015-Jun-27 07:32N 55°51' E 012°50'0 0.0
2015-Jun-27 06:32N 55°51' E 012°50'0 0.0
2015-Jun-27 05:32N 55°51' E 012°50'0 0.0
2015-Jun-27 04:32N 55°51' E 012°50'0 0.0
2015-Jun-27 03:32N 55°51' E 012°50'0 0.0
2015-Jun-27 02:32N 55°51' E 012°50'0 0.0
2015-Jun-27 01:32N 55°51' E 012°50'0 0.0
2015-Jun-27 00:32N 55°51' E 012°50'0 0.0
2015-Jun-26 23:32N 55°51' E 012°50'0 0.0
2015-Jun-26 22:32N 55°51' E 012°50'0 0.0
2015-Jun-26 21:32N 55°51' E 012°50'0 0.0
2015-Jun-26 20:32N 55°51' E 012°50'0 0.0
2015-Jun-26 19:32N 55°51' E 012°50'0 0.0
2015-Jun-26 18:32N 55°51' E 012°50'0 0.0
2015-Jun-26 17:29N 55°51' E 012°50'0 0.0
2015-Jun-26 16:32N 55°51' E 012°50'0 0.0
2015-Jun-26 15:32N 55°51' E 012°50'0 0.0
2015-Jun-26 14:32N 55°51' E 012°50'0 0.0
2015-Jun-26 13:32N 55°51' E 012°50'0 0.0
2015-Jun-26 12:29N 55°51' E 012°50'0 0.0
2015-Jun-26 11:29N 55°51' E 012°50'0 0.0
2015-Jun-26 10:32N 55°51' E 012°50'0 0.0
2015-Jun-26 09:32N 55°51' E 012°50'0 0.0
2015-Jun-26 08:32N 55°51' E 012°50'  

Dump ship's entire track history